createdAt,value
2018-08-12T00:01:56.636Z,13.23
2018-08-12T00:04:28.678Z,13.11
2018-08-12T00:07:00.698Z,12.97
2018-08-12T00:09:32.750Z,12.89
2018-08-12T00:12:11.530Z,12.90
2018-08-12T00:14:43.546Z,12.83
2018-08-12T00:17:15.614Z,12.75
2018-08-12T00:19:47.637Z,12.72
2018-08-12T00:22:19.631Z,12.64
2018-08-12T00:24:51.671Z,12.55
2018-08-12T00:27:23.638Z,12.64
2018-08-12T00:29:55.679Z,12.68
2018-08-12T00:32:27.712Z,12.51
2018-08-12T00:34:59.730Z,12.39
2018-08-12T00:37:31.747Z,12.49
2018-08-12T00:40:04.900Z,12.52
2018-08-12T00:42:36.959Z,12.47
2018-08-12T00:45:12.592Z,12.49
2018-08-12T00:47:44.948Z,12.56
2018-08-12T00:50:17.564Z,12.40
2018-08-12T00:52:49.591Z,12.30
2018-08-12T00:55:21.618Z,12.34
2018-08-12T00:57:53.740Z,12.47
2018-08-12T01:00:25.775Z,12.43
2018-08-12T01:02:57.807Z,12.39
2018-08-12T01:05:29.838Z,12.36
2018-08-12T01:08:01.858Z,12.31
2018-08-12T01:10:33.883Z,12.27
2018-08-12T01:13:05.901Z,12.28
2018-08-12T01:15:37.948Z,12.31
2018-08-12T01:18:09.960Z,12.32
2018-08-12T01:20:41.949Z,12.21
2018-08-12T01:23:13.959Z,12.16
2018-08-12T01:25:45.997Z,12.15
2018-08-12T01:28:18.071Z,12.13
2018-08-12T01:30:50.118Z,12.06
2018-08-12T01:33:22.131Z,12.02
2018-08-12T01:35:54.205Z,11.98
2018-08-12T01:38:26.178Z,11.95
2018-08-12T01:40:58.178Z,11.81
2018-08-12T01:43:30.184Z,11.77
2018-08-12T01:46:02.240Z,11.77
2018-08-12T01:48:34.275Z,11.75
2018-08-12T01:51:06.338Z,11.63
2018-08-12T01:53:38.327Z,11.69
2018-08-12T01:56:10.378Z,11.51
2018-08-12T01:58:42.375Z,11.36
2018-08-12T02:01:14.407Z,11.22
2018-08-12T02:03:46.430Z,11.18
2018-08-12T02:06:18.442Z,11.17
2018-08-12T02:08:50.450Z,11.11
2018-08-12T02:11:22.482Z,11.16
2018-08-12T02:13:54.535Z,11.14
2018-08-12T02:16:26.591Z,11.19
2018-08-12T02:18:58.582Z,11.21
2018-08-12T02:21:30.587Z,11.21
2018-08-12T02:24:02.569Z,11.27
2018-08-12T02:26:34.614Z,11.21
2018-08-12T02:29:06.611Z,11.16
2018-08-12T02:31:38.616Z,11.13
2018-08-12T02:34:10.616Z,11.20
2018-08-12T02:36:42.729Z,11.24
2018-08-12T02:39:14.713Z,11.27
2018-08-12T02:41:46.699Z,11.24
2018-08-12T02:44:18.728Z,11.17
2018-08-12T02:46:50.752Z,11.13
2018-08-12T02:49:22.746Z,11.03
2018-08-12T02:51:54.710Z,11.07
2018-08-12T02:54:26.675Z,11.02
2018-08-12T02:56:58.714Z,11.02
2018-08-12T02:59:30.712Z,10.96
2018-08-12T03:02:02.780Z,10.86
2018-08-12T03:04:34.812Z,10.73
2018-08-12T03:07:06.823Z,10.74
2018-08-12T03:09:38.811Z,10.80
2018-08-12T03:12:10.854Z,10.75
2018-08-12T03:14:42.851Z,10.72
2018-08-12T03:17:14.898Z,10.71
2018-08-12T03:19:46.916Z,10.85
2018-08-12T03:22:18.953Z,10.86
2018-08-12T03:24:50.945Z,10.82
2018-08-12T03:27:22.958Z,10.77
2018-08-12T03:29:54.950Z,10.63
2018-08-12T03:32:26.954Z,10.59
2018-08-12T03:34:58.976Z,10.44
2018-08-12T03:37:30.984Z,10.45
2018-08-12T03:40:03.888Z,10.34
2018-08-12T03:42:35.939Z,10.36
2018-08-12T03:45:08.730Z,10.35
2018-08-12T03:47:40.737Z,10.36
2018-08-12T03:50:12.757Z,10.29
2018-08-12T03:52:44.767Z,10.36
2018-08-12T03:55:16.748Z,10.37
2018-08-12T03:57:48.748Z,10.36
2018-08-12T04:00:20.777Z,10.45
2018-08-12T04:02:52.739Z,10.48
2018-08-12T04:05:25.834Z,10.56
2018-08-12T04:07:57.819Z,10.60
2018-08-12T04:10:29.823Z,10.60
2018-08-12T04:13:01.811Z,10.64
2018-08-12T04:15:33.770Z,10.68
2018-08-12T04:18:05.918Z,10.64
2018-08-12T04:20:37.907Z,10.57
2018-08-12T04:23:09.966Z,10.51
2018-08-12T04:25:41.931Z,10.56
2018-08-12T04:28:13.922Z,10.52
2018-08-12T04:30:45.923Z,10.59
2018-08-12T04:33:17.930Z,10.71
2018-08-12T04:35:49.934Z,10.74
2018-08-12T04:38:21.931Z,10.82
2018-08-12T04:40:53.935Z,10.86
2018-08-12T04:46:04.965Z,11.10
2018-08-12T04:48:36.910Z,11.22
2018-08-12T04:51:08.871Z,11.28
2018-08-12T04:53:40.880Z,11.39
2018-08-12T04:56:12.875Z,11.48
2018-08-12T04:58:44.846Z,11.66
2018-08-12T05:01:16.837Z,11.59
2018-08-12T05:03:48.823Z,11.66
2018-08-12T05:06:20.766Z,11.72
2018-08-12T05:08:52.826Z,11.95
2018-08-12T05:11:24.854Z,12.12
2018-08-12T05:13:56.823Z,12.59
2018-08-12T05:16:28.817Z,13.64
2018-08-12T05:19:00.875Z,14.36
2018-08-12T05:21:32.875Z,14.11
2018-08-12T05:24:05.198Z,13.81
2018-08-12T05:26:37.190Z,13.38
2018-08-12T05:29:09.202Z,13.44
2018-08-12T05:31:41.250Z,14.21
2018-08-12T05:34:13.268Z,15.79
2018-08-12T05:36:45.316Z,17.88
2018-08-12T05:39:17.326Z,19.17
2018-08-12T05:41:49.305Z,20.44
2018-08-12T05:44:21.331Z,21.61
2018-08-12T05:46:53.376Z,21.56
2018-08-12T05:49:25.387Z,21.39
2018-08-12T05:51:57.376Z,21.75
2018-08-12T05:54:29.480Z,22.23
2018-08-12T05:57:01.510Z,23.76
2018-08-12T05:59:33.636Z,23.60
2018-08-12T06:02:05.831Z,23.93
2018-08-12T06:04:37.826Z,25.19
2018-08-12T06:07:09.817Z,25.55
2018-08-12T06:09:41.891Z,25.78
2018-08-12T06:12:13.903Z,25.34
2018-08-12T06:14:45.934Z,25.54
2018-08-12T06:17:18.007Z,26.05
2018-08-12T06:19:50.086Z,25.61
2018-08-12T06:22:22.111Z,25.39
2018-08-12T06:24:54.140Z,25.96
2018-08-12T06:27:26.138Z,26.18
2018-08-12T06:29:58.146Z,26.59
2018-08-12T06:32:30.162Z,27.80
2018-08-12T06:35:02.262Z,28.10
2018-08-12T06:37:34.340Z,26.93
2018-08-12T06:40:08.572Z,27.89
2018-08-12T06:42:42.127Z,27.83
2018-08-12T06:45:15.564Z,27.50
2018-08-12T06:47:48.040Z,28.52
2018-08-12T06:50:20.259Z,28.58
2018-08-12T06:52:52.273Z,28.44
2018-08-12T06:55:24.282Z,27.73
2018-08-12T06:57:56.309Z,27.43
2018-08-12T07:00:28.487Z,27.28
2018-08-12T07:03:00.492Z,27.13
2018-08-12T07:05:32.504Z,26.33
2018-08-12T07:08:04.679Z,27.51
2018-08-12T07:10:36.692Z,27.75
2018-08-12T07:13:08.707Z,28.73
2018-08-12T07:15:40.933Z,28.57
2018-08-12T07:18:13.126Z,29.10
2018-08-12T07:20:45.291Z,28.37
2018-08-12T07:23:17.306Z,28.33
2018-08-12T07:25:49.319Z,27.31
2018-08-12T07:28:21.360Z,28.27
2018-08-12T07:30:53.398Z,28.63
2018-08-12T07:33:25.451Z,28.13
2018-08-12T07:35:57.551Z,28.05
2018-08-12T07:38:29.662Z,28.27
2018-08-12T07:41:01.712Z,29.16
2018-08-12T07:43:33.752Z,27.98
2018-08-12T07:46:05.759Z,27.95
2018-08-12T07:48:37.817Z,27.95
2018-08-12T07:51:09.815Z,27.90
2018-08-12T07:53:41.911Z,29.03
2018-08-12T07:56:14.048Z,30.04
2018-08-12T07:58:46.289Z,30.40
2018-08-12T08:01:18.280Z,30.45
2018-08-12T08:03:50.386Z,28.38
2018-08-12T08:06:22.565Z,27.54
2018-08-12T08:08:54.555Z,28.26
2018-08-12T08:11:26.603Z,28.75
2018-08-12T08:13:58.638Z,28.97
2018-08-12T08:16:30.663Z,30.28
2018-08-12T08:19:02.703Z,30.90
2018-08-12T08:21:34.804Z,31.21
2018-08-12T08:24:06.862Z,30.67
2018-08-12T08:26:38.883Z,30.83
2018-08-12T08:29:10.968Z,30.61
2018-08-12T08:31:43.066Z,30.91
2018-08-12T08:34:15.035Z,31.28
2018-08-12T08:36:47.063Z,30.69
2018-08-12T08:39:19.068Z,30.45
2018-08-12T08:41:51.191Z,30.54
2018-08-12T08:44:23.214Z,30.66
2018-08-12T08:46:55.270Z,31.28
2018-08-12T08:49:27.413Z,32.32
2018-08-12T08:51:59.441Z,31.88
2018-08-12T08:54:31.485Z,31.44
2018-08-12T08:57:03.540Z,31.52
2018-08-12T08:59:35.595Z,31.25
2018-08-12T09:02:07.606Z,31.59
2018-08-12T09:04:46.505Z,31.32
2018-08-12T09:07:18.699Z,31.72
2018-08-12T09:09:50.743Z,30.37
2018-08-12T09:12:22.780Z,29.70
2018-08-12T09:14:54.792Z,28.98
2018-08-12T09:17:26.844Z,28.37
2018-08-12T09:19:58.889Z,28.01
2018-08-12T09:22:30.910Z,29.09
2018-08-12T09:25:03.394Z,29.73
2018-08-12T09:27:35.738Z,29.20
2018-08-12T09:30:10.252Z,29.81
2018-08-12T09:32:42.749Z,30.53
2018-08-12T09:35:14.788Z,29.74
2018-08-12T09:37:46.827Z,29.87
2018-08-12T09:40:19.221Z,28.57
2018-08-12T09:42:51.219Z,28.38
2018-08-12T09:45:23.253Z,29.50
2018-08-12T09:47:55.322Z,28.98
2018-08-12T09:50:27.451Z,29.48
2018-08-12T09:52:59.462Z,28.78
2018-08-12T09:55:31.507Z,29.08
2018-08-12T09:58:03.575Z,30.20
2018-08-12T10:00:37.567Z,29.70
2018-08-12T10:03:10.038Z,30.07
2018-08-12T10:05:42.072Z,30.43
2018-08-12T10:08:14.100Z,30.93
2018-08-12T10:10:46.124Z,30.24
2018-08-12T10:13:18.205Z,30.86
2018-08-12T10:15:50.381Z,30.39
2018-08-12T10:18:22.475Z,30.49
2018-08-12T10:20:54.614Z,30.50
2018-08-12T10:23:26.686Z,30.78
2018-08-12T10:25:58.693Z,31.95
2018-08-12T10:28:30.722Z,31.65
2018-08-12T10:31:03.137Z,32.09
2018-08-12T10:33:35.207Z,31.63
2018-08-12T10:36:07.261Z,31.17
2018-08-12T10:38:39.331Z,31.51
2018-08-12T10:41:11.338Z,31.32
2018-08-12T10:43:43.402Z,31.12
2018-08-12T10:46:15.437Z,30.60
2018-08-12T10:48:47.466Z,31.34
2018-08-12T10:51:19.475Z,31.79
2018-08-12T10:53:51.586Z,30.37
2018-08-12T10:56:23.676Z,30.05
2018-08-12T10:58:55.739Z,29.23
2018-08-12T11:01:27.843Z,28.67
2018-08-12T11:04:06.782Z,29.09
2018-08-12T11:06:38.887Z,30.12
2018-08-12T11:09:10.932Z,30.66
2018-08-12T11:11:43.018Z,30.20
2018-08-12T11:14:15.015Z,31.04
2018-08-12T11:16:47.051Z,31.62
2018-08-12T11:19:19.047Z,31.18
2018-08-12T11:21:51.124Z,31.27
2018-08-12T11:24:23.155Z,31.57
2018-08-12T11:26:55.200Z,31.99
2018-08-12T11:29:27.228Z,30.27
2018-08-12T11:31:59.283Z,29.80
2018-08-12T11:34:31.288Z,30.26
2018-08-12T11:37:03.451Z,30.43
2018-08-12T11:39:35.465Z,30.23
2018-08-12T11:42:07.504Z,29.66
2018-08-12T11:44:39.558Z,29.31
2018-08-12T11:47:11.586Z,29.91
2018-08-12T11:49:43.646Z,30.54
2018-08-12T11:52:16.472Z,29.98
2018-08-12T11:54:48.582Z,30.78
2018-08-12T11:57:20.627Z,31.90
2018-08-12T11:59:52.644Z,31.08
2018-08-12T12:02:24.688Z,31.76
2018-08-12T12:04:56.731Z,31.41
2018-08-12T12:07:28.776Z,30.48
2018-08-12T12:10:00.824Z,31.15
2018-08-12T12:12:33.799Z,32.17
2018-08-12T12:15:05.920Z,32.34
2018-08-12T12:17:37.926Z,32.01
2018-08-12T12:20:11.115Z,31.24
2018-08-12T12:22:47.211Z,31.08
2018-08-12T12:25:20.264Z,31.76
2018-08-12T12:27:52.330Z,32.83
2018-08-12T12:30:24.416Z,32.36
2018-08-12T12:32:56.546Z,33.27
2018-08-12T12:35:28.626Z,33.11
2018-08-12T12:38:00.595Z,33.51
2018-08-12T12:40:32.642Z,33.73
2018-08-12T12:43:04.840Z,32.56
2018-08-12T12:45:36.927Z,34.20
2018-08-12T12:48:09.098Z,33.26
2018-08-12T12:50:41.231Z,33.43
2018-08-12T12:53:13.211Z,34.00
2018-08-12T12:55:45.343Z,34.27
2018-08-12T12:58:17.407Z,35.45
2018-08-12T13:00:49.508Z,35.91
2018-08-12T13:03:21.554Z,36.53
2018-08-12T13:05:53.582Z,36.94
2018-08-12T13:08:25.683Z,36.95
2018-08-12T13:10:57.764Z,36.29
2018-08-12T13:13:29.842Z,37.11
2018-08-12T13:16:01.947Z,37.72
2018-08-12T13:18:34.007Z,37.19
2018-08-12T13:21:06.066Z,37.97
2018-08-12T13:23:38.103Z,37.34
2018-08-12T13:26:10.160Z,34.00
2018-08-12T13:28:42.210Z,35.37
2018-08-12T13:31:14.205Z,36.11
2018-08-12T13:33:46.224Z,36.62
2018-08-12T13:36:18.248Z,36.68
2018-08-12T13:38:50.338Z,37.60
2018-08-12T13:41:22.361Z,37.32
2018-08-12T13:43:54.412Z,36.46
2018-08-12T13:46:26.472Z,36.54
2018-08-12T13:48:58.522Z,37.01
2018-08-12T13:51:30.782Z,36.93
2018-08-12T13:54:02.831Z,37.76
2018-08-12T13:56:34.858Z,38.09
2018-08-12T13:59:06.981Z,36.14
2018-08-12T14:01:39.050Z,37.43
2018-08-12T14:04:11.047Z,37.79
2018-08-12T14:06:43.183Z,36.82
2018-08-12T14:09:15.227Z,35.71
2018-08-12T14:11:47.260Z,34.65
2018-08-12T14:14:19.290Z,34.11
2018-08-12T14:16:51.327Z,35.27
2018-08-12T14:19:23.406Z,35.88
2018-08-12T14:21:55.443Z,37.31
2018-08-12T14:24:27.471Z,38.05
2018-08-12T14:26:59.610Z,37.41
2018-08-12T14:29:31.655Z,37.05
2018-08-12T14:32:03.702Z,38.09
2018-08-12T14:34:35.782Z,38.84
2018-08-12T14:37:07.897Z,39.03
2018-08-12T14:39:39.974Z,37.30
2018-08-12T14:42:12.102Z,36.49
2018-08-12T14:44:44.258Z,36.79
2018-08-12T14:47:16.175Z,36.45
2018-08-12T14:49:48.265Z,36.09
2018-08-12T14:52:20.373Z,36.64
2018-08-12T14:54:52.401Z,37.08
2018-08-12T14:57:24.544Z,35.15
2018-08-12T14:59:56.568Z,36.12
2018-08-12T15:02:28.896Z,36.78
2018-08-12T15:05:01.016Z,36.91
2018-08-12T15:07:33.043Z,36.23
2018-08-12T15:10:06.558Z,36.27
2018-08-12T15:12:39.015Z,35.53
2018-08-12T15:15:13.118Z,35.82
2018-08-12T15:17:45.811Z,35.41
2018-08-12T15:20:17.889Z,35.76
2018-08-12T15:22:49.963Z,35.92
2018-08-12T15:25:21.964Z,35.84
2018-08-12T15:27:53.998Z,36.38
2018-08-12T15:30:26.020Z,36.88
2018-08-12T15:32:58.106Z,35.16
2018-08-12T15:35:30.138Z,34.99
2018-08-12T15:38:02.202Z,35.39
2018-08-12T15:40:34.243Z,36.02
2018-08-12T15:43:06.350Z,36.08
2018-08-12T15:45:38.383Z,35.68
2018-08-12T15:48:10.480Z,36.92
2018-08-12T15:50:42.557Z,36.15
2018-08-12T15:53:14.585Z,36.46
2018-08-12T15:55:46.679Z,35.77
2018-08-12T15:58:18.695Z,34.79
2018-08-12T16:00:50.767Z,34.30
2018-08-12T16:03:22.800Z,34.38
2018-08-12T16:05:54.871Z,35.49
2018-08-12T16:08:26.872Z,36.10
2018-08-12T16:10:58.887Z,35.59
2018-08-12T16:13:30.914Z,34.64
2018-08-12T16:16:03.022Z,33.96
2018-08-12T16:18:35.054Z,33.43
2018-08-12T16:21:07.153Z,32.85
2018-08-12T16:23:39.168Z,32.37
2018-08-12T16:26:11.227Z,31.63
2018-08-12T16:28:43.258Z,31.07
2018-08-12T16:31:15.347Z,31.04
2018-08-12T16:33:47.396Z,30.23
2018-08-12T16:36:19.740Z,30.14
2018-08-12T16:38:51.800Z,29.79
2018-08-12T16:41:23.868Z,29.35
2018-08-12T16:43:55.910Z,29.15
2018-08-12T16:46:27.954Z,28.80
2018-08-12T16:49:00.124Z,28.76
2018-08-12T16:51:32.225Z,28.50
2018-08-12T16:54:04.247Z,28.39
2018-08-12T16:56:36.244Z,28.44
2018-08-12T16:59:08.224Z,28.48
2018-08-12T17:01:40.210Z,28.40
2018-08-12T17:04:12.243Z,28.25
2018-08-12T17:06:44.286Z,28.08
2018-08-12T17:09:16.248Z,27.94
2018-08-12T17:11:48.307Z,27.86
2018-08-12T17:14:20.302Z,27.80
2018-08-12T17:16:52.332Z,27.70
2018-08-12T17:19:24.334Z,27.60
2018-08-12T17:21:56.403Z,27.53
2018-08-12T17:24:28.419Z,27.38
2018-08-12T17:27:00.478Z,27.29
2018-08-12T17:29:32.478Z,27.26
2018-08-12T17:32:04.526Z,27.14
2018-08-12T17:34:36.571Z,27.13
2018-08-12T17:37:08.595Z,26.97
2018-08-12T17:39:40.614Z,26.86
2018-08-12T17:42:12.683Z,26.80
2018-08-12T17:44:44.730Z,26.71
2018-08-12T17:47:16.860Z,26.53
2018-08-12T17:49:48.964Z,26.30
2018-08-12T17:52:21.054Z,26.23
2018-08-12T17:54:53.146Z,26.07
2018-08-12T17:57:25.292Z,25.96
2018-08-12T17:59:57.354Z,25.91
2018-08-12T18:02:29.647Z,25.79
2018-08-12T18:05:01.767Z,25.67
2018-08-12T18:07:33.834Z,25.48
2018-08-12T18:10:06.238Z,25.45
2018-08-12T18:12:38.399Z,25.31
2018-08-12T18:15:11.400Z,25.12
2018-08-12T18:17:43.538Z,24.94
2018-08-12T18:20:15.655Z,24.73
2018-08-12T18:22:47.807Z,24.68
2018-08-12T18:25:19.871Z,24.42
2018-08-12T18:27:52.010Z,24.24
2018-08-12T18:30:24.076Z,24.19
2018-08-12T18:32:56.135Z,24.11
2018-08-12T18:35:28.149Z,24.05
2018-08-12T18:38:00.251Z,23.92
2018-08-12T18:40:32.279Z,23.73
2018-08-12T18:43:04.426Z,23.62
2018-08-12T18:45:36.412Z,23.38
2018-08-12T18:48:08.538Z,23.37
2018-08-12T18:50:40.555Z,23.22
2018-08-12T18:53:12.552Z,23.09
2018-08-12T18:55:44.610Z,22.91
2018-08-12T18:58:16.607Z,22.84
2018-08-12T19:00:48.821Z,22.76
2018-08-12T19:03:20.944Z,22.70
2018-08-12T19:05:52.939Z,22.64
2018-08-12T19:08:25.066Z,22.67
2018-08-12T19:10:57.047Z,22.65
2018-08-12T19:13:29.192Z,22.60
2018-08-12T19:16:01.199Z,22.47
2018-08-12T19:18:33.315Z,22.39
2018-08-12T19:21:05.434Z,22.39
2018-08-12T19:23:37.439Z,22.33
2018-08-12T19:26:09.479Z,22.09
2018-08-12T19:28:41.503Z,22.06
2018-08-12T19:31:13.492Z,22.07
2018-08-12T19:33:45.611Z,22.05
2018-08-12T19:36:17.567Z,21.93
2018-08-12T19:38:49.649Z,21.76
2018-08-12T19:41:22.762Z,21.64
2018-08-12T19:43:54.971Z,21.53
2018-08-12T19:46:27.069Z,21.38
2018-08-12T19:48:59.156Z,21.32
2018-08-12T19:51:31.167Z,21.15
2018-08-12T19:54:03.288Z,20.99
2018-08-12T19:56:35.298Z,20.91
2018-08-12T19:59:07.347Z,20.78
2018-08-12T20:01:39.437Z,20.73
2018-08-12T20:04:11.446Z,20.69
2018-08-12T20:06:43.563Z,20.58
2018-08-12T20:09:15.593Z,20.44
2018-08-12T20:11:47.661Z,20.37
2018-08-12T20:14:19.683Z,20.37
2018-08-12T20:16:51.755Z,20.27
2018-08-12T20:19:23.807Z,20.20
2018-08-12T20:21:55.851Z,20.17
2018-08-12T20:24:27.914Z,20.07
2018-08-12T20:26:59.983Z,19.96
2018-08-12T20:29:32.038Z,19.96
2018-08-12T20:32:04.015Z,19.92
2018-08-12T20:34:36.069Z,19.82
2018-08-12T20:37:08.159Z,19.69
2018-08-12T20:39:40.166Z,19.59
2018-08-12T20:42:12.212Z,19.67
2018-08-12T20:44:44.282Z,19.80
2018-08-12T20:47:16.330Z,19.78
2018-08-12T20:49:48.367Z,19.65
2018-08-12T20:52:20.447Z,19.41
2018-08-12T20:54:52.516Z,19.28
2018-08-12T20:57:24.518Z,19.20
2018-08-12T20:59:56.633Z,19.29
2018-08-12T21:02:28.811Z,19.38
2018-08-12T21:05:00.871Z,19.40
2018-08-12T21:07:33.027Z,19.34
2018-08-12T21:10:05.131Z,19.32
2018-08-12T21:12:37.180Z,19.21
2018-08-12T21:15:09.198Z,19.17
2018-08-12T21:17:41.235Z,19.13
2018-08-12T21:20:13.299Z,19.01
2018-08-12T21:22:45.306Z,18.83
2018-08-12T21:25:17.333Z,18.70
2018-08-12T21:27:49.338Z,18.71
2018-08-12T21:30:22.075Z,18.73
2018-08-12T21:32:54.075Z,18.78
2018-08-12T21:35:26.101Z,18.86
2018-08-12T21:37:58.124Z,18.84
2018-08-12T21:40:30.191Z,18.75
2018-08-12T21:43:02.260Z,18.75
2018-08-12T21:45:34.275Z,18.61
2018-08-12T21:48:06.267Z,18.65
2018-08-12T21:50:38.279Z,18.55
2018-08-12T21:53:10.330Z,18.51
2018-08-12T21:55:42.374Z,18.42
2018-08-12T21:58:14.407Z,18.35
2018-08-12T22:00:46.447Z,18.34
2018-08-12T22:03:18.493Z,18.25
2018-08-12T22:05:51.019Z,18.14
2018-08-12T22:08:23.102Z,18.10
2018-08-12T22:10:55.112Z,18.04
2018-08-12T22:13:27.098Z,18.12
2018-08-12T22:15:59.211Z,18.05
2018-08-12T22:18:31.228Z,17.92
2018-08-12T22:21:03.281Z,17.92
2018-08-12T22:23:35.344Z,17.96
2018-08-12T22:26:07.422Z,17.97
2018-08-12T22:28:39.427Z,17.95
2018-08-12T22:31:11.471Z,17.91
2018-08-12T22:33:43.490Z,17.71
2018-08-12T22:36:15.504Z,17.48
2018-08-12T22:38:47.552Z,17.47
2018-08-12T22:41:19.584Z,17.38
2018-08-12T22:43:51.599Z,17.28
2018-08-12T22:46:23.628Z,17.35
2018-08-12T22:48:55.643Z,17.33
2018-08-12T22:51:27.658Z,17.36
2018-08-12T22:53:59.709Z,17.44
2018-08-12T22:56:31.735Z,17.35
2018-08-12T22:59:03.770Z,17.45
2018-08-12T23:01:36.332Z,17.42
2018-08-12T23:04:08.375Z,17.35
2018-08-12T23:06:40.442Z,17.26
2018-08-12T23:09:12.467Z,17.11
2018-08-12T23:11:44.499Z,17.12
2018-08-12T23:14:16.530Z,17.13
2018-08-12T23:16:57.495Z,16.96
2018-08-12T23:19:29.754Z,16.88
2018-08-12T23:22:01.786Z,16.96
2018-08-12T23:24:33.797Z,16.84
2018-08-12T23:27:05.819Z,16.77
2018-08-12T23:29:37.847Z,16.67
2018-08-12T23:32:09.870Z,16.86
2018-08-12T23:34:41.855Z,16.93
2018-08-12T23:37:13.865Z,16.94
2018-08-12T23:39:45.884Z,16.89
2018-08-12T23:42:17.875Z,16.88
2018-08-12T23:44:49.865Z,16.91
2018-08-12T23:47:21.896Z,16.89
2018-08-12T23:49:53.874Z,16.86
2018-08-12T23:52:26.027Z,16.78
2018-08-12T23:54:58.040Z,16.75
2018-08-12T23:57:30.059Z,16.76
